createdAt,value
2023-01-21T00:02:56.519Z,1.59
2023-01-21T00:05:59.776Z,1.59
2023-01-21T00:09:04.114Z,1.57
2023-01-21T00:12:07.606Z,1.56
2023-01-21T00:15:11.048Z,1.56
2023-01-21T00:18:15.324Z,1.54
2023-01-21T00:21:18.677Z,1.53
2023-01-21T00:24:24.456Z,1.52
2023-01-21T00:27:27.737Z,1.53
2023-01-21T00:30:31.052Z,1.54
2023-01-21T00:33:45.238Z,1.56
2023-01-21T00:36:48.455Z,1.56
2023-01-21T00:39:51.955Z,1.56
2023-01-21T00:42:55.284Z,1.56
2023-01-21T00:45:59.091Z,1.56
2023-01-21T00:49:02.501Z,1.56
2023-01-21T00:52:05.857Z,1.59
2023-01-21T00:55:09.332Z,1.59
2023-01-21T00:58:12.768Z,1.59
2023-01-21T01:01:19.340Z,1.59
2023-01-21T01:04:23.087Z,1.59
2023-01-21T01:07:26.247Z,1.58
2023-01-21T01:10:29.504Z,1.58
2023-01-21T01:13:34.975Z,1.58
2023-01-21T01:16:38.294Z,1.58
2023-01-21T01:19:41.507Z,1.61
2023-01-21T01:22:44.743Z,1.63
2023-01-21T01:26:02.792Z,1.63
2023-01-21T01:29:06.740Z,1.64
2023-01-21T01:32:10.843Z,1.66
2023-01-21T01:35:14.086Z,1.66
2023-01-21T01:38:22.466Z,1.66
2023-01-21T01:41:29.536Z,1.67
2023-01-21T01:44:57.558Z,1.67
2023-01-21T01:48:06.230Z,1.68
2023-01-21T01:51:10.086Z,1.69
2023-01-21T01:54:18.180Z,1.69
2023-01-21T01:57:24.005Z,1.69
2023-01-21T02:00:27.632Z,1.68
2023-01-21T02:03:44.929Z,1.68
2023-01-21T02:06:49.052Z,1.66
2023-01-21T02:09:53.801Z,1.64
2023-01-21T02:12:57.045Z,1.63
2023-01-21T02:16:15.126Z,1.61
2023-01-21T02:19:42.288Z,1.63
2023-01-21T02:23:12.344Z,1.63
2023-01-21T02:26:21.032Z,1.62
2023-01-21T02:29:52.941Z,1.63
2023-01-21T02:33:14.400Z,1.64
2023-01-21T02:36:35.971Z,1.65
2023-01-21T02:39:54.468Z,1.66
2023-01-21T02:43:08.396Z,1.65
2023-01-21T02:46:34.115Z,1.66
2023-01-21T02:49:45.407Z,1.67
2023-01-21T02:52:59.072Z,1.67
2023-01-21T02:56:12.201Z,1.67
2023-01-21T02:59:15.424Z,1.68
2023-01-21T03:02:46.474Z,1.66
2023-01-21T03:05:57.104Z,1.66
2023-01-21T03:09:10.232Z,1.66
2023-01-21T03:12:45.277Z,1.67
2023-01-21T03:16:14.409Z,1.64
2023-01-21T03:19:19.660Z,1.65
2023-01-21T03:22:27.983Z,1.64
2023-01-21T03:25:34.004Z,1.64
2023-01-21T03:28:44.759Z,1.65
2023-01-21T03:31:52.207Z,1.65
2023-01-21T03:34:56.706Z,1.65
2023-01-21T03:38:21.784Z,1.64
2023-01-21T03:41:33.580Z,1.64
2023-01-21T03:44:38.000Z,1.62
2023-01-21T03:47:50.473Z,1.61
2023-01-21T03:50:59.781Z,1.61
2023-01-21T03:54:03.051Z,1.59
2023-01-21T03:57:06.537Z,1.57
2023-01-21T04:00:10.798Z,1.57
2023-01-21T04:03:13.985Z,1.57
2023-01-21T04:06:20.233Z,1.56
2023-01-21T04:09:23.711Z,1.54
2023-01-21T04:12:26.896Z,1.53
2023-01-21T04:15:30.055Z,1.53
2023-01-21T04:18:33.411Z,1.52
2023-01-21T04:21:36.598Z,1.51
2023-01-21T04:24:40.473Z,1.48
2023-01-21T04:27:43.656Z,1.49
2023-01-21T04:30:47.541Z,1.48
2023-01-21T04:33:50.752Z,1.48
2023-01-21T04:36:53.927Z,1.47
2023-01-21T04:39:57.110Z,1.46
2023-01-21T04:43:00.318Z,1.46
2023-01-21T04:46:03.746Z,1.44
2023-01-21T04:49:06.916Z,1.44
2023-01-21T04:52:10.313Z,1.43
2023-01-21T04:55:13.520Z,1.41
2023-01-21T04:58:16.701Z,1.41
2023-01-21T05:01:19.839Z,1.39
2023-01-21T05:04:23.052Z,1.39
2023-01-21T05:07:26.342Z,1.36
2023-01-21T05:10:29.909Z,1.33
2023-01-21T05:13:33.418Z,1.33
2023-01-21T05:16:36.891Z,1.32
2023-01-21T05:19:40.085Z,1.30
2023-01-21T05:22:47.843Z,1.29
2023-01-21T05:25:51.129Z,1.28
2023-01-21T05:28:54.281Z,1.27
2023-01-21T05:31:57.478Z,1.27
2023-01-21T05:35:00.618Z,1.27
2023-01-21T05:38:03.875Z,1.27
2023-01-21T05:41:07.156Z,1.26
2023-01-21T05:44:10.619Z,1.25
2023-01-21T05:47:13.838Z,1.23
2023-01-21T05:50:18.299Z,1.22
2023-01-21T05:53:21.702Z,1.21
2023-01-21T05:56:24.905Z,1.20
2023-01-21T05:59:28.588Z,1.21
2023-01-21T06:02:31.851Z,1.23
2023-01-21T06:05:35.190Z,1.23
2023-01-21T06:08:38.621Z,1.24
2023-01-21T06:11:42.162Z,1.25
2023-01-21T06:14:45.299Z,1.26
2023-01-21T06:17:48.415Z,1.25
2023-01-21T06:20:51.677Z,1.24
2023-01-21T06:23:54.866Z,1.25
2023-01-21T06:26:58.043Z,1.25
2023-01-21T06:30:01.201Z,1.25
2023-01-21T06:33:04.632Z,1.23
2023-01-21T06:36:08.511Z,1.22
2023-01-21T06:39:11.841Z,1.23
2023-01-21T06:42:17.868Z,1.23
2023-01-21T06:45:21.133Z,1.24
2023-01-21T06:48:24.385Z,1.25
2023-01-21T06:51:27.635Z,1.25
2023-01-21T06:54:30.963Z,1.24
2023-01-21T06:57:34.154Z,1.23
2023-01-21T07:00:37.414Z,1.24
2023-01-21T07:03:40.595Z,1.25
2023-01-21T07:06:43.893Z,1.24
2023-01-21T07:09:47.193Z,1.24
2023-01-21T07:12:50.820Z,1.23
2023-01-21T07:15:59.851Z,1.24
2023-01-21T07:19:03.309Z,1.25
2023-01-21T07:22:06.607Z,1.28
2023-01-21T07:25:10.108Z,1.29
2023-01-21T07:28:13.303Z,1.30
2023-01-21T07:31:16.580Z,1.30
2023-01-21T07:34:19.916Z,1.31
2023-01-21T07:37:23.127Z,1.32
2023-01-21T07:40:26.416Z,1.33
2023-01-21T07:43:29.608Z,1.36
2023-01-21T07:46:33.329Z,1.38
2023-01-21T07:49:37.796Z,1.39
2023-01-21T07:52:41.106Z,1.42
2023-01-21T07:55:44.317Z,1.45
2023-01-21T07:58:47.747Z,1.48
2023-01-21T08:01:50.999Z,1.49
2023-01-21T08:04:54.370Z,1.52
2023-01-21T08:07:58.798Z,1.53
2023-01-21T08:11:02.042Z,1.53
2023-01-21T08:14:05.762Z,1.54
2023-01-21T08:17:09.870Z,1.57
2023-01-21T08:20:13.689Z,1.59
2023-01-21T08:23:16.914Z,1.62
2023-01-21T08:26:20.131Z,1.63
2023-01-21T08:29:23.360Z,1.66
2023-01-21T08:32:29.881Z,1.67
2023-01-21T08:35:33.065Z,1.69
2023-01-21T08:38:36.963Z,1.72
2023-01-21T08:41:42.879Z,1.75
2023-01-21T08:44:46.511Z,1.80
2023-01-21T08:47:49.675Z,1.86
2023-01-21T08:50:52.896Z,1.92
2023-01-21T08:53:56.117Z,1.95
2023-01-21T08:56:59.269Z,2.00
2023-01-21T09:00:02.491Z,2.05
2023-01-21T09:03:05.761Z,2.08
2023-01-21T09:06:12.617Z,2.09
2023-01-21T09:09:16.211Z,2.10
2023-01-21T09:12:19.531Z,2.13
2023-01-21T09:15:22.741Z,2.17
2023-01-21T09:18:26.053Z,2.21
2023-01-21T09:21:34.552Z,2.25
2023-01-21T09:24:37.850Z,2.28
2023-01-21T09:27:41.292Z,2.30
2023-01-21T09:30:44.730Z,2.29
2023-01-21T09:33:50.232Z,2.30
2023-01-21T09:36:53.555Z,2.30
2023-01-21T09:39:56.714Z,2.31
2023-01-21T09:43:11.020Z,2.47
2023-01-21T09:46:55.496Z,2.71
2023-01-21T09:50:14.169Z,2.70
2023-01-21T09:53:32.574Z,2.66
2023-01-21T09:56:45.566Z,2.62
2023-01-21T10:00:10.013Z,2.58
2023-01-21T10:03:37.297Z,2.55
2023-01-21T10:06:59.781Z,2.52
2023-01-21T10:10:27.890Z,2.49
2023-01-21T10:13:46.332Z,2.43
2023-01-21T10:17:13.601Z,2.42
2023-01-21T10:20:27.197Z,2.40
2023-01-21T10:23:43.718Z,2.40
2023-01-21T10:26:49.677Z,2.40
2023-01-21T10:30:22.396Z,2.39
2023-01-21T10:33:26.927Z,2.39
2023-01-21T10:36:49.392Z,2.39
2023-01-21T10:40:38.861Z,2.40
2023-01-21T10:43:54.959Z,2.39
2023-01-21T10:47:34.473Z,2.39
2023-01-21T10:51:28.794Z,2.41
2023-01-21T10:54:47.127Z,2.42
2023-01-21T10:58:04.068Z,2.43
2023-01-21T11:01:18.752Z,2.44
2023-01-21T11:04:24.482Z,2.45
2023-01-21T11:07:34.891Z,2.47
2023-01-21T11:10:40.359Z,2.47
2023-01-21T11:13:43.623Z,2.47
2023-01-21T11:16:50.059Z,2.46
2023-01-21T11:20:00.768Z,2.46
2023-01-21T11:23:24.339Z,2.46
2023-01-21T11:26:28.246Z,2.48
2023-01-21T11:29:41.553Z,2.47
2023-01-21T11:32:44.894Z,2.46
2023-01-21T11:35:48.422Z,2.46
2023-01-21T11:39:06.620Z,2.45
2023-01-21T11:42:17.120Z,2.46
2023-01-21T11:45:31.170Z,2.47
2023-01-21T11:48:35.430Z,2.47
2023-01-21T11:51:41.233Z,2.48
2023-01-21T11:54:45.326Z,2.48
2023-01-21T11:57:53.268Z,2.48
2023-01-21T12:00:59.945Z,2.46
2023-01-21T12:04:03.346Z,2.46
2023-01-21T12:07:06.655Z,2.44
2023-01-21T12:10:12.890Z,2.42
2023-01-21T12:13:24.092Z,2.41
2023-01-21T12:16:37.398Z,2.40
2023-01-21T12:19:57.463Z,2.40
2023-01-21T12:23:23.959Z,2.40
2023-01-21T12:26:33.014Z,2.41
2023-01-21T12:29:52.596Z,2.41
2023-01-21T12:33:03.718Z,2.41
2023-01-21T12:36:17.661Z,2.42
2023-01-21T12:39:29.094Z,2.43
2023-01-21T12:42:41.200Z,2.48
2023-01-21T12:45:53.640Z,2.66
2023-01-21T12:48:56.714Z,2.62
2023-01-21T12:52:07.551Z,2.58
2023-01-21T12:55:25.561Z,2.54
2023-01-21T12:58:42.852Z,2.51
2023-01-21T13:02:05.794Z,2.50
2023-01-21T13:05:19.389Z,2.48
2023-01-21T13:08:43.658Z,2.47
2023-01-21T13:11:54.830Z,2.44
2023-01-21T13:15:14.761Z,2.41
2023-01-21T13:18:35.489Z,2.39
2023-01-21T13:22:01.390Z,2.37
2023-01-21T13:25:25.679Z,2.37
2023-01-21T13:29:06.135Z,2.36
2023-01-21T13:32:18.963Z,2.33
2023-01-21T13:35:40.752Z,2.32
2023-01-21T13:38:55.275Z,2.32
2023-01-21T13:42:07.456Z,2.31
2023-01-21T13:45:34.743Z,2.30
2023-01-21T13:49:14.878Z,2.29
2023-01-21T13:52:39.408Z,2.28
2023-01-21T13:56:15.610Z,2.28
2023-01-21T13:59:25.179Z,2.25
2023-01-21T14:02:56.658Z,2.25
2023-01-21T14:06:17.638Z,2.24
2023-01-21T14:09:29.588Z,2.24
2023-01-21T14:12:54.946Z,2.23
2023-01-21T14:16:32.351Z,2.22
2023-01-21T14:19:54.715Z,2.20
2023-01-21T14:23:05.736Z,2.20
2023-01-21T14:26:35.996Z,2.21
2023-01-21T14:29:46.687Z,2.19
2023-01-21T14:32:57.159Z,2.19
2023-01-21T14:36:39.530Z,2.19
2023-01-21T14:40:09.612Z,2.17
2023-01-21T14:43:30.921Z,2.16
2023-01-21T14:46:34.405Z,2.15
2023-01-21T14:49:43.526Z,2.14
2023-01-21T14:52:47.242Z,2.12
2023-01-21T14:56:09.055Z,2.11
2023-01-21T14:59:43.654Z,2.12
2023-01-21T15:02:52.234Z,2.10
2023-01-21T15:06:00.507Z,2.09
2023-01-21T15:09:05.545Z,2.08
2023-01-21T15:12:22.144Z,2.07
2023-01-21T15:15:39.887Z,2.08
2023-01-21T15:19:05.179Z,2.07
2023-01-21T15:22:35.465Z,2.06
2023-01-21T15:26:07.456Z,2.05
2023-01-21T15:29:34.358Z,2.04
2023-01-21T15:32:44.769Z,2.04
2023-01-21T15:35:48.280Z,2.04
2023-01-21T15:38:54.591Z,2.04
2023-01-21T15:42:30.318Z,2.04
2023-01-21T15:45:45.109Z,2.04
2023-01-21T15:49:19.208Z,2.06
2023-01-21T15:52:44.151Z,2.05
2023-01-21T15:56:13.149Z,2.05
2023-01-21T15:59:36.050Z,2.04
2023-01-21T16:02:57.921Z,2.04
2023-01-21T16:06:14.909Z,2.03
2023-01-21T16:09:34.111Z,2.03
2023-01-21T16:12:43.526Z,2.04
2023-01-21T16:16:02.465Z,2.04
2023-01-21T16:19:13.519Z,2.03
2023-01-21T16:22:25.717Z,2.03
2023-01-21T16:25:29.061Z,2.03
2023-01-21T16:28:51.416Z,2.02
2023-01-21T16:32:01.532Z,2.01
2023-01-21T16:35:05.904Z,2.00
2023-01-21T16:38:15.303Z,1.99
2023-01-21T16:41:24.069Z,1.99
2023-01-21T16:44:27.492Z,1.98
2023-01-21T16:47:36.214Z,1.97
2023-01-21T16:50:46.710Z,1.95
2023-01-21T16:53:53.745Z,1.95
2023-01-21T16:57:02.488Z,1.95
2023-01-21T17:00:22.458Z,1.95
2023-01-21T17:03:25.813Z,1.95
2023-01-21T17:06:31.991Z,1.94
2023-01-21T17:09:37.121Z,1.94
2023-01-21T17:12:40.661Z,1.93
2023-01-21T17:15:57.396Z,1.92
2023-01-21T17:19:08.557Z,1.90
2023-01-21T17:22:19.017Z,1.89
2023-01-21T17:25:25.858Z,1.88
2023-01-21T17:28:44.376Z,1.86
2023-01-21T17:32:04.862Z,1.85
2023-01-21T17:35:17.884Z,1.84
2023-01-21T17:38:30.210Z,1.82
2023-01-21T17:41:38.245Z,1.82
2023-01-21T17:44:46.257Z,1.80
2023-01-21T17:48:08.596Z,1.79
2023-01-21T17:51:22.254Z,1.77
2023-01-21T17:54:29.680Z,1.76
2023-01-21T17:57:35.625Z,1.76
2023-01-21T18:00:43.251Z,1.74
2023-01-21T18:03:46.794Z,1.73
2023-01-21T18:06:52.219Z,1.74
2023-01-21T18:10:02.317Z,1.74
2023-01-21T18:13:05.949Z,1.73
2023-01-21T18:16:09.726Z,1.73
2023-01-21T18:19:32.202Z,1.73
2023-01-21T18:22:36.163Z,1.73
2023-01-21T18:25:43.609Z,1.73
2023-01-21T18:28:46.856Z,1.73
2023-01-21T18:31:52.174Z,1.73
2023-01-21T18:34:55.475Z,1.74
2023-01-21T18:37:58.681Z,1.75
2023-01-21T18:41:02.140Z,1.75
2023-01-21T18:44:05.455Z,1.75
2023-01-21T18:47:15.938Z,1.76
2023-01-21T18:50:22.401Z,1.77
2023-01-21T18:53:25.964Z,1.77
2023-01-21T18:56:29.230Z,1.77
2023-01-21T18:59:34.667Z,1.78
2023-01-21T19:02:38.915Z,1.78
2023-01-21T19:05:45.601Z,1.79
2023-01-21T19:08:51.233Z,1.80
2023-01-21T19:12:01.591Z,1.81
2023-01-21T19:15:08.193Z,1.82
2023-01-21T19:18:13.191Z,1.82
2023-01-21T19:21:16.988Z,1.82
2023-01-21T19:24:21.049Z,1.82
2023-01-21T19:27:29.340Z,1.82
2023-01-21T19:30:32.856Z,1.82
2023-01-21T19:33:36.253Z,1.80
2023-01-21T19:36:40.192Z,1.81
2023-01-21T19:39:43.412Z,1.81
2023-01-21T19:42:47.340Z,1.82
2023-01-21T19:45:52.845Z,1.82
2023-01-21T19:48:57.835Z,1.82
2023-01-21T19:52:01.180Z,1.83
2023-01-21T19:55:06.376Z,1.82
2023-01-21T19:58:19.760Z,1.83
2023-01-21T20:01:23.407Z,1.83
2023-01-21T20:04:26.598Z,1.82
2023-01-21T20:07:30.995Z,1.83
2023-01-21T20:10:34.229Z,1.84
2023-01-21T20:13:39.339Z,1.85
2023-01-21T20:16:50.043Z,1.84
2023-01-21T20:19:53.287Z,1.84
2023-01-21T20:22:56.769Z,1.85
2023-01-21T20:26:00.957Z,1.85
2023-01-21T20:29:06.752Z,1.86
2023-01-21T20:32:10.703Z,1.86
2023-01-21T20:35:15.919Z,1.86
2023-01-21T20:38:30.252Z,1.85
2023-01-21T20:41:34.442Z,1.83
2023-01-21T20:44:37.684Z,1.82
2023-01-21T20:47:50.128Z,1.83
2023-01-21T20:50:54.182Z,1.84
2023-01-21T20:53:57.447Z,1.85
2023-01-21T20:57:00.707Z,1.84
2023-01-21T21:00:05.440Z,1.85
2023-01-21T21:03:08.727Z,1.86
2023-01-21T21:06:22.079Z,1.85
2023-01-21T21:09:25.240Z,1.86
2023-01-21T21:12:28.448Z,1.87
2023-01-21T21:15:34.330Z,1.86
2023-01-21T21:18:37.473Z,1.86
2023-01-21T21:21:40.666Z,1.85
2023-01-21T21:24:43.945Z,1.85
2023-01-21T21:27:47.341Z,1.85
2023-01-21T21:30:50.553Z,1.84
2023-01-21T21:33:53.837Z,1.85
2023-01-21T21:36:57.252Z,1.85
2023-01-21T21:40:00.752Z,1.85
2023-01-21T21:43:23.559Z,1.85
2023-01-21T21:46:45.502Z,1.85
2023-01-21T21:49:48.693Z,1.85
2023-01-21T21:52:51.901Z,1.86
2023-01-21T21:55:55.089Z,1.85
2023-01-21T21:58:58.259Z,1.84
2023-01-21T22:02:01.443Z,1.84
2023-01-21T22:05:05.072Z,1.82
2023-01-21T22:08:09.249Z,1.81
2023-01-21T22:11:20.551Z,1.79
2023-01-21T22:14:23.708Z,1.76
2023-01-21T22:17:26.939Z,1.73
2023-01-21T22:20:30.134Z,1.71
2023-01-21T22:23:35.671Z,1.69
2023-01-21T22:26:38.863Z,1.68
2023-01-21T22:29:42.066Z,1.67
2023-01-21T22:32:45.369Z,1.65
2023-01-21T22:35:48.547Z,1.65
2023-01-21T22:38:52.557Z,1.63
2023-01-21T22:41:55.844Z,1.64
2023-01-21T22:44:59.073Z,1.62
2023-01-21T22:48:02.472Z,1.61
2023-01-21T22:51:05.916Z,1.60
2023-01-21T22:54:10.128Z,1.59
2023-01-21T22:57:13.542Z,1.57
2023-01-21T23:00:34.624Z,1.55
2023-01-21T23:03:37.858Z,1.54
2023-01-21T23:06:41.095Z,1.52
2023-01-21T23:09:44.330Z,1.50
2023-01-21T23:12:48.182Z,1.47
2023-01-21T23:15:51.427Z,1.45
2023-01-21T23:18:54.585Z,1.42
2023-01-21T23:21:57.741Z,1.38
2023-01-21T23:25:00.932Z,1.35
2023-01-21T23:28:04.335Z,1.32
2023-01-21T23:31:13.876Z,1.30
2023-01-21T23:34:17.716Z,1.27
2023-01-21T23:37:20.929Z,1.24
2023-01-21T23:40:24.064Z,1.21
2023-01-21T23:43:27.422Z,1.20
2023-01-21T23:46:30.785Z,1.18
2023-01-21T23:49:34.115Z,1.14
2023-01-21T23:52:40.818Z,1.13
2023-01-21T23:55:44.675Z,1.12
2023-01-21T23:58:48.159Z,1.12
